RYR22MB EGPH-LFOB
Flight info
| Callsign | RYR22MB |
|---|---|
| Flight time | 1h 23m |
| Altitude | 37000 |
| Route | GOSAM P600 FENIK L612 NAVSO DCT AKOMU DCT VAMEB UL612 WOD UM605 WAFFU M605 PETAX J150 VELOL |
| Aircraft | B738/M-SDE2E3FGHIRWXY/LB1 |
Departure
| Time | 2026-05-06 17:18 |
|---|---|
| Airport | Edinburgh Airport (EGPH) |
Arrival
| Time | 2026-05-06 18:41 |
|---|---|
| Airport | Beauvais-Tillé airport (LFOB) |
| Time | Latitude | Longitude | Altitude | Speed | Heading |
|---|---|---|---|---|---|
| 2026-05-06 16:49 | 55.94773 | -3.35549 | 144 ft | 0 kts | 209° |
| 2026-05-06 16:58 | 55.94776 | -3.35546 | 144 ft | 1 kts | 209° |
| 2026-05-06 16:58 | 55.94788 | -3.35534 | 144 ft | 3 kts | 211° |
| 2026-05-06 16:58 | 55.94802 | -3.35512 | 144 ft | 3 kts | 233° |
| 2026-05-06 16:58 | 55.94809 | -3.35491 | 144 ft | 3 kts | 249° |
| 2026-05-06 16:59 | 55.94813 | -3.35455 | 144 ft | 3 kts | 271° |
| 2026-05-06 16:59 | 55.94813 | -3.35451 | 144 ft | 0 kts | 271° |
| 2026-05-06 17:06 | 55.94813 | -3.35453 | 144 ft | 1 kts | 271° |
| 2026-05-06 17:07 | 55.94822 | -3.35493 | 144 ft | 6 kts | 298° |
| 2026-05-06 17:07 | 55.94847 | -3.35575 | 144 ft | 9 kts | 298° |
| 2026-05-06 17:07 | 55.94880 | -3.35683 | 144 ft | 11 kts | 298° |
| 2026-05-06 17:07 | 55.94922 | -3.35820 | 144 ft | 13 kts | 298° |
| 2026-05-06 17:08 | 55.94979 | -3.35867 | 144 ft | 10 kts | 27° |
| 2026-05-06 17:08 | 55.95045 | -3.35853 | 144 ft | 10 kts | 317° |
| 2026-05-06 17:08 | 55.95083 | -3.35971 | 144 ft | 12 kts | 298° |
| 2026-05-06 17:08 | 55.95119 | -3.36125 | 144 ft | 15 kts | 288° |
| 2026-05-06 17:09 | 55.95136 | -3.36273 | 144 ft | 11 kts | 251° |
| 2026-05-06 17:09 | 55.95095 | -3.36402 | 144 ft | 13 kts | 239° |
| 2026-05-06 17:09 | 55.95043 | -3.36554 | 144 ft | 16 kts | 239° |
| 2026-05-06 17:09 | 55.94993 | -3.36703 | 144 ft | 15 kts | 239° |
| 2026-05-06 17:10 | 55.94936 | -3.36873 | 144 ft | 17 kts | 239° |
| 2026-05-06 17:10 | 55.94872 | -3.37063 | 144 ft | 19 kts | 239° |
| 2026-05-06 17:10 | 55.94812 | -3.37242 | 144 ft | 15 kts | 239° |
| 2026-05-06 17:10 | 55.94756 | -3.37409 | 144 ft | 17 kts | 239° |
| 2026-05-06 17:11 | 55.94702 | -3.37570 | 144 ft | 15 kts | 239° |
| 2026-05-06 17:11 | 55.94644 | -3.37742 | 144 ft | 18 kts | 239° |
| 2026-05-06 17:11 | 55.94586 | -3.37913 | 144 ft | 16 kts | 239° |
| 2026-05-06 17:11 | 55.94525 | -3.38096 | 144 ft | 19 kts | 239° |
| 2026-05-06 17:12 | 55.94471 | -3.38255 | 144 ft | 16 kts | 239° |
| 2026-05-06 17:12 | 55.94418 | -3.38412 | 144 ft | 10 kts | 239° |
| 2026-05-06 17:12 | 55.94384 | -3.38514 | 144 ft | 9 kts | 239° |
| 2026-05-06 17:12 | 55.94359 | -3.38587 | 144 ft | 8 kts | 239° |
| 2026-05-06 17:13 | 55.94333 | -3.38664 | 144 ft | 7 kts | 239° |
| 2026-05-06 17:13 | 55.94319 | -3.38707 | 144 ft | 5 kts | 239° |
| 2026-05-06 17:13 | 55.94298 | -3.38769 | 144 ft | 7 kts | 239° |
| 2026-05-06 17:13 | 55.94289 | -3.38837 | 144 ft | 7 kts | 285° |
| 2026-05-06 17:14 | 55.94313 | -3.38888 | 144 ft | 3 kts | 324° |
| 2026-05-06 17:14 | 55.94340 | -3.38916 | 144 ft | 6 kts | 328° |
| 2026-05-06 17:14 | 55.94381 | -3.38962 | 144 ft | 8 kts | 328° |
| 2026-05-06 17:14 | 55.94430 | -3.38944 | 144 ft | 7 kts | 51° |
| 2026-05-06 17:15 | 55.94443 | -3.38908 | 144 ft | 0 kts | 59° |
| 2026-05-06 17:17 | 55.94591 | -3.38467 | 144 ft | 80 kts | 59° |
| 2026-05-06 17:18 | 55.94977 | -3.37322 | 144 ft | 134 kts | 59° |
| 2026-05-06 17:18 | 55.95497 | -3.35777 | 586 ft | 146 kts | 59° |
| 2026-05-06 17:18 | 55.96015 | -3.34197 | 1269 ft | 149 kts | 60° |
| 2026-05-06 17:18 | 55.96659 | -3.32771 | 1916 ft | 151 kts | 44° |
| 2026-05-06 17:19 | 55.97483 | -3.31533 | 2501 ft | 158 kts | 40° |
| 2026-05-06 17:19 | 55.98377 | -3.30270 | 3031 ft | 168 kts | 40° |
| 2026-05-06 17:19 | 55.99332 | -3.28958 | 3555 ft | 178 kts | 39° |
| 2026-05-06 17:19 | 56.00330 | -3.27600 | 4065 ft | 186 kts | 38° |
| 2026-05-06 17:20 | 56.01529 | -3.26637 | 4541 ft | 194 kts | 10° |
| 2026-05-06 17:20 | 56.02849 | -3.27021 | 5050 ft | 194 kts | 334° |
| 2026-05-06 17:20 | 56.03824 | -3.28653 | 5550 ft | 197 kts | 300° |
| 2026-05-06 17:20 | 56.04145 | -3.31033 | 6076 ft | 200 kts | 269° |
| 2026-05-06 17:21 | 56.03948 | -3.33526 | 6600 ft | 211 kts | 257° |
| 2026-05-06 17:21 | 56.03595 | -3.36207 | 7109 ft | 230 kts | 255° |
| 2026-05-06 17:21 | 56.03174 | -3.39097 | 7634 ft | 250 kts | 254° |
| 2026-05-06 17:21 | 56.02704 | -3.42233 | 8281 ft | 267 kts | 254° |
| 2026-05-06 17:22 | 56.02206 | -3.45521 | 9022 ft | 282 kts | 254° |
| 2026-05-06 17:22 | 56.01673 | -3.49015 | 9767 ft | 299 kts | 254° |
| 2026-05-06 17:22 | 56.01113 | -3.52658 | 10495 ft | 314 kts | 254° |
| 2026-05-06 17:22 | 56.00512 | -3.56525 | 11237 ft | 327 kts | 254° |
| 2026-05-06 17:23 | 55.99734 | -3.60434 | 12000 ft | 337 kts | 243° |
| 2026-05-06 17:23 | 55.98287 | -3.63687 | 12948 ft | 340 kts | 223° |
| 2026-05-06 17:23 | 55.96258 | -3.65920 | 13915 ft | 344 kts | 205° |
| 2026-05-06 17:23 | 55.93991 | -3.67226 | 14786 ft | 350 kts | 197° |
| 2026-05-06 17:24 | 55.91563 | -3.68124 | 15539 ft | 356 kts | 193° |
| 2026-05-06 17:24 | 55.89087 | -3.68805 | 16276 ft | 364 kts | 191° |
| 2026-05-06 17:24 | 55.86564 | -3.69388 | 17004 ft | 372 kts | 190° |
| 2026-05-06 17:24 | 55.83948 | -3.69934 | 17739 ft | 379 kts | 189° |
| 2026-05-06 17:25 | 55.81338 | -3.70444 | 18460 ft | 385 kts | 189° |
| 2026-05-06 17:25 | 55.78611 | -3.70959 | 19198 ft | 394 kts | 189° |
| 2026-05-06 17:25 | 55.75886 | -3.71461 | 19920 ft | 401 kts | 189° |
| 2026-05-06 17:25 | 55.73077 | -3.71972 | 20652 ft | 407 kts | 189° |
| 2026-05-06 17:26 | 55.70260 | -3.72477 | 21376 ft | 411 kts | 189° |
| 2026-05-06 17:26 | 55.67374 | -3.72992 | 22110 ft | 414 kts | 189° |
| 2026-05-06 17:26 | 55.64512 | -3.73496 | 22832 ft | 417 kts | 189° |
| 2026-05-06 17:26 | 55.61620 | -3.74025 | 23560 ft | 418 kts | 189° |
| 2026-05-06 17:27 | 55.58716 | -3.74578 | 24288 ft | 418 kts | 190° |
| 2026-05-06 17:27 | 55.55853 | -3.75132 | 25007 ft | 418 kts | 190° |
| 2026-05-06 17:27 | 55.52952 | -3.75693 | 25735 ft | 416 kts | 190° |
| 2026-05-06 17:27 | 55.50062 | -3.76250 | 26463 ft | 415 kts | 190° |
| 2026-05-06 17:28 | 55.47224 | -3.76794 | 27179 ft | 414 kts | 190° |
| 2026-05-06 17:28 | 55.44343 | -3.77348 | 27907 ft | 417 kts | 190° |
| 2026-05-06 17:28 | 55.41454 | -3.77907 | 28631 ft | 422 kts | 190° |
| 2026-05-06 17:28 | 55.38501 | -3.78477 | 29362 ft | 426 kts | 190° |
| 2026-05-06 17:29 | 55.35562 | -3.79023 | 30084 ft | 429 kts | 190° |
| 2026-05-06 17:29 | 55.32560 | -3.79558 | 30817 ft | 430 kts | 189° |
| 2026-05-06 17:29 | 55.29592 | -3.80066 | 31538 ft | 431 kts | 189° |
| 2026-05-06 17:29 | 55.26574 | -3.80332 | 32271 ft | 435 kts | 180° |
| 2026-05-06 17:30 | 55.23593 | -3.79446 | 33015 ft | 437 kts | 168° |
| 2026-05-06 17:30 | 55.20664 | -3.77842 | 33589 ft | 442 kts | 163° |
| 2026-05-06 17:30 | 55.17808 | -3.75891 | 34019 ft | 448 kts | 160° |
| 2026-05-06 17:30 | 55.14917 | -3.73682 | 34420 ft | 454 kts | 158° |
| 2026-05-06 17:31 | 55.12054 | -3.71374 | 34801 ft | 459 kts | 157° |
| 2026-05-06 17:31 | 55.09133 | -3.68958 | 35183 ft | 463 kts | 156° |
| 2026-05-06 17:31 | 55.06205 | -3.66504 | 35561 ft | 467 kts | 156° |
| 2026-05-06 17:31 | 55.03287 | -3.64043 | 35935 ft | 470 kts | 156° |
| 2026-05-06 17:32 | 55.00326 | -3.61537 | 36313 ft | 473 kts | 156° |
| 2026-05-06 17:32 | 54.97375 | -3.59040 | 36687 ft | 475 kts | 156° |
| 2026-05-06 17:32 | 54.94383 | -3.56515 | 36902 ft | 481 kts | 156° |
| 2026-05-06 17:32 | 54.91368 | -3.54009 | 37004 ft | 487 kts | 156° |
| 2026-05-06 17:33 | 54.88290 | -3.51441 | 37032 ft | 490 kts | 156° |
| 2026-05-06 17:33 | 54.82175 | -3.46327 | 37028 ft | 486 kts | 156° |
| 2026-05-06 17:34 | 54.76119 | -3.41314 | 37023 ft | 482 kts | 156° |
| 2026-05-06 17:34 | 54.70093 | -3.36360 | 37022 ft | 479 kts | 157° |
| 2026-05-06 17:35 | 54.64038 | -3.31479 | 37022 ft | 478 kts | 157° |
| 2026-05-06 17:35 | 54.58045 | -3.26586 | 37022 ft | 477 kts | 156° |
| 2026-05-06 17:36 | 54.49087 | -3.19215 | 37022 ft | 476 kts | 156° |
| 2026-05-06 17:36 | 54.43091 | -3.14346 | 37022 ft | 475 kts | 156° |
| 2026-05-06 17:37 | 54.37126 | -3.09462 | 37022 ft | 475 kts | 156° |
| 2026-05-06 17:37 | 54.31197 | -3.04571 | 37022 ft | 475 kts | 156° |
| 2026-05-06 17:38 | 54.25247 | -2.99702 | 37026 ft | 474 kts | 156° |
| 2026-05-06 17:38 | 54.19255 | -2.94886 | 37022 ft | 474 kts | 158° |
| 2026-05-06 17:39 | 54.13243 | -2.90289 | 37022 ft | 473 kts | 158° |
| 2026-05-06 17:39 | 54.07241 | -2.85800 | 37022 ft | 473 kts | 159° |
| 2026-05-06 17:40 | 54.01223 | -2.81390 | 37022 ft | 472 kts | 159° |
| 2026-05-06 17:40 | 53.95157 | -2.77030 | 37022 ft | 472 kts | 159° |
| 2026-05-06 17:41 | 53.89121 | -2.72648 | 37022 ft | 471 kts | 159° |
| 2026-05-06 17:41 | 53.83076 | -2.68348 | 37024 ft | 471 kts | 159° |
| 2026-05-06 17:42 | 53.77053 | -2.64016 | 37024 ft | 470 kts | 159° |
| 2026-05-06 17:42 | 53.71022 | -2.59746 | 37028 ft | 470 kts | 160° |
| 2026-05-06 17:43 | 53.64994 | -2.55477 | 37025 ft | 470 kts | 159° |
| 2026-05-06 17:43 | 53.58989 | -2.51195 | 37024 ft | 469 kts | 160° |
| 2026-05-06 17:44 | 53.53941 | -2.47663 | 37024 ft | 469 kts | 160° |
| 2026-05-06 17:44 | 53.47936 | -2.43417 | 37024 ft | 469 kts | 159° |
| 2026-05-06 17:45 | 53.41942 | -2.39214 | 37023 ft | 469 kts | 160° |
| 2026-05-06 17:45 | 53.35918 | -2.34994 | 37023 ft | 469 kts | 159° |
| 2026-05-06 17:46 | 53.29859 | -2.30755 | 37022 ft | 469 kts | 160° |
| 2026-05-06 17:46 | 53.23874 | -2.26613 | 37022 ft | 469 kts | 160° |
| 2026-05-06 17:47 | 53.17852 | -2.22401 | 37021 ft | 469 kts | 160° |
| 2026-05-06 17:47 | 53.11830 | -2.18266 | 37020 ft | 468 kts | 160° |
| 2026-05-06 17:48 | 53.05807 | -2.14178 | 37019 ft | 468 kts | 160° |
| 2026-05-06 17:48 | 52.99785 | -2.10115 | 37018 ft | 468 kts | 160° |
| 2026-05-06 17:49 | 52.93737 | -2.06049 | 37018 ft | 468 kts | 160° |
| 2026-05-06 17:49 | 52.87719 | -2.02012 | 37018 ft | 468 kts | 160° |
| 2026-05-06 17:50 | 52.81681 | -1.97971 | 37019 ft | 467 kts | 160° |
| 2026-05-06 17:50 | 52.75647 | -1.93928 | 37030 ft | 467 kts | 160° |
| 2026-05-06 17:51 | 52.69694 | -1.89836 | 37029 ft | 466 kts | 159° |
| 2026-05-06 17:51 | 52.63700 | -1.85676 | 37027 ft | 466 kts | 160° |
| 2026-05-06 17:52 | 52.57705 | -1.81572 | 37025 ft | 466 kts | 159° |
| 2026-05-06 17:52 | 52.51730 | -1.77440 | 37023 ft | 466 kts | 159° |
| 2026-05-06 17:53 | 52.45761 | -1.73344 | 37022 ft | 466 kts | 159° |
| 2026-05-06 17:53 | 52.39792 | -1.69175 | 37023 ft | 466 kts | 158° |
| 2026-05-06 17:54 | 52.33925 | -1.64742 | 37022 ft | 466 kts | 157° |
| 2026-05-06 17:54 | 52.28055 | -1.60144 | 37021 ft | 466 kts | 156° |
| 2026-05-06 17:55 | 52.22293 | -1.55403 | 37016 ft | 466 kts | 155° |
| 2026-05-06 17:55 | 52.16483 | -1.50613 | 37011 ft | 466 kts | 155° |
| 2026-05-06 17:56 | 52.10702 | -1.45871 | 37006 ft | 466 kts | 155° |
| 2026-05-06 17:56 | 52.04912 | -1.41136 | 37001 ft | 466 kts | 155° |
| 2026-05-06 17:57 | 51.99102 | -1.36396 | 36996 ft | 466 kts | 155° |
| 2026-05-06 17:57 | 51.93311 | -1.31696 | 36994 ft | 466 kts | 155° |
| 2026-05-06 17:58 | 51.87477 | -1.26981 | 36993 ft | 466 kts | 155° |
| 2026-05-06 17:58 | 51.81690 | -1.22318 | 36993 ft | 466 kts | 155° |
| 2026-05-06 17:59 | 51.75901 | -1.17667 | 36993 ft | 466 kts | 155° |
| 2026-05-06 17:59 | 51.70086 | -1.13016 | 36993 ft | 466 kts | 156° |
| 2026-05-06 18:00 | 51.64392 | -1.08025 | 36995 ft | 468 kts | 148° |
| 2026-05-06 18:00 | 51.59155 | -1.01704 | 37001 ft | 470 kts | 143° |
| 2026-05-06 18:01 | 51.54135 | -0.94992 | 36994 ft | 470 kts | 141° |
| 2026-05-06 18:01 | 51.49157 | -0.88160 | 36993 ft | 470 kts | 141° |
| 2026-05-06 18:02 | 51.44217 | -0.81353 | 36993 ft | 470 kts | 141° |
| 2026-05-06 18:02 | 51.39242 | -0.74501 | 36993 ft | 470 kts | 141° |
| 2026-05-06 18:03 | 51.34299 | -0.67706 | 36993 ft | 470 kts | 141° |
| 2026-05-06 18:03 | 51.29359 | -0.60931 | 36993 ft | 470 kts | 141° |
| 2026-05-06 18:04 | 51.24388 | -0.54129 | 36993 ft | 470 kts | 141° |
| 2026-05-06 18:04 | 51.19417 | -0.47347 | 36993 ft | 470 kts | 141° |
| 2026-05-06 18:05 | 51.14671 | -0.40885 | 36993 ft | 470 kts | 141° |
| 2026-05-06 18:05 | 51.09666 | -0.34083 | 36918 ft | 471 kts | 141° |
| 2026-05-06 18:06 | 51.07170 | -0.30700 | 36347 ft | 477 kts | 141° |
| 2026-05-06 18:06 | 51.04668 | -0.27318 | 35735 ft | 472 kts | 141° |
| 2026-05-06 18:06 | 51.02187 | -0.23970 | 35110 ft | 462 kts | 141° |
| 2026-05-06 18:06 | 50.99759 | -0.20697 | 34482 ft | 452 kts | 141° |
| 2026-05-06 18:07 | 50.97393 | -0.17510 | 33857 ft | 443 kts | 141° |
| 2026-05-06 18:07 | 50.95062 | -0.14375 | 33230 ft | 435 kts | 141° |
| 2026-05-06 18:07 | 50.92774 | -0.11299 | 32603 ft | 428 kts | 141° |
| 2026-05-06 18:07 | 50.90530 | -0.08309 | 31983 ft | 423 kts | 142° |
| 2026-05-06 18:08 | 50.88255 | -0.05318 | 31350 ft | 417 kts | 142° |
| 2026-05-06 18:08 | 50.86038 | -0.02426 | 30727 ft | 412 kts | 142° |
| 2026-05-06 18:08 | 50.83851 | 0.00415 | 30105 ft | 407 kts | 142° |
| 2026-05-06 18:08 | 50.81658 | 0.03264 | 29475 ft | 402 kts | 142° |
| 2026-05-06 18:09 | 50.79505 | 0.06054 | 28848 ft | 397 kts | 142° |
| 2026-05-06 18:09 | 50.77381 | 0.08802 | 28223 ft | 393 kts | 142° |
| 2026-05-06 18:09 | 50.75281 | 0.11514 | 27597 ft | 388 kts | 142° |
| 2026-05-06 18:09 | 50.73189 | 0.14212 | 26968 ft | 384 kts | 142° |
| 2026-05-06 18:10 | 50.71149 | 0.16859 | 26347 ft | 381 kts | 142° |
| 2026-05-06 18:10 | 50.69110 | 0.19536 | 25717 ft | 377 kts | 141° |
| 2026-05-06 18:10 | 50.67121 | 0.22160 | 25095 ft | 373 kts | 141° |
| 2026-05-06 18:10 | 50.65140 | 0.24778 | 24469 ft | 370 kts | 141° |
| 2026-05-06 18:11 | 50.63171 | 0.27382 | 23872 ft | 366 kts | 141° |
| 2026-05-06 18:11 | 50.61227 | 0.29954 | 23348 ft | 361 kts | 141° |
| 2026-05-06 18:11 | 50.59333 | 0.32457 | 22849 ft | 358 kts | 141° |
| 2026-05-06 18:11 | 50.57424 | 0.34972 | 22347 ft | 356 kts | 141° |
| 2026-05-06 18:12 | 50.55516 | 0.37483 | 21842 ft | 353 kts | 141° |
| 2026-05-06 18:12 | 50.53652 | 0.39967 | 21342 ft | 351 kts | 141° |
| 2026-05-06 18:12 | 50.51825 | 0.42426 | 20847 ft | 348 kts | 140° |
| 2026-05-06 18:12 | 50.49983 | 0.44910 | 20344 ft | 346 kts | 140° |
| 2026-05-06 18:13 | 50.48156 | 0.47356 | 19842 ft | 343 kts | 141° |
| 2026-05-06 18:13 | 50.46340 | 0.49759 | 19443 ft | 338 kts | 141° |
| 2026-05-06 18:13 | 50.44559 | 0.52095 | 19177 ft | 334 kts | 141° |
| 2026-05-06 18:13 | 50.42772 | 0.54426 | 18925 ft | 333 kts | 141° |
| 2026-05-06 18:14 | 50.41002 | 0.56731 | 18676 ft | 333 kts | 141° |
| 2026-05-06 18:14 | 50.39208 | 0.59062 | 18424 ft | 332 kts | 141° |
| 2026-05-06 18:14 | 50.37428 | 0.61364 | 18174 ft | 331 kts | 142° |
| 2026-05-06 18:14 | 50.35645 | 0.63630 | 17924 ft | 330 kts | 142° |
| 2026-05-06 18:15 | 50.33864 | 0.65871 | 17675 ft | 329 kts | 142° |
| 2026-05-06 18:15 | 50.32079 | 0.68105 | 17425 ft | 328 kts | 142° |
| 2026-05-06 18:15 | 50.30305 | 0.70320 | 17175 ft | 327 kts | 142° |
| 2026-05-06 18:15 | 50.28528 | 0.72547 | 16925 ft | 326 kts | 142° |
| 2026-05-06 18:16 | 50.26738 | 0.74782 | 16671 ft | 325 kts | 142° |
| 2026-05-06 18:16 | 50.24983 | 0.76958 | 16422 ft | 324 kts | 142° |
| 2026-05-06 18:16 | 50.23231 | 0.79129 | 16173 ft | 322 kts | 142° |
| 2026-05-06 18:16 | 50.21485 | 0.81393 | 15919 ft | 322 kts | 139° |
| 2026-05-06 18:17 | 50.19890 | 0.83811 | 15672 ft | 321 kts | 135° |
| 2026-05-06 18:17 | 50.18377 | 0.86321 | 15424 ft | 320 kts | 133° |
| 2026-05-06 18:17 | 50.16883 | 0.88907 | 15172 ft | 318 kts | 132° |
| 2026-05-06 18:17 | 50.15422 | 0.91472 | 14923 ft | 317 kts | 132° |
| 2026-05-06 18:18 | 50.13954 | 0.94066 | 14671 ft | 316 kts | 131° |
| 2026-05-06 18:18 | 50.12500 | 0.96636 | 14420 ft | 315 kts | 131° |
| 2026-05-06 18:18 | 50.11064 | 0.99174 | 14171 ft | 314 kts | 131° |
| 2026-05-06 18:18 | 50.09627 | 1.01709 | 13922 ft | 313 kts | 132° |
| 2026-05-06 18:19 | 50.08175 | 1.04236 | 13671 ft | 312 kts | 132° |
| 2026-05-06 18:19 | 50.06728 | 1.06734 | 13421 ft | 310 kts | 132° |
| 2026-05-06 18:19 | 50.05279 | 1.09208 | 13171 ft | 309 kts | 133° |
| 2026-05-06 18:19 | 50.03836 | 1.11660 | 12921 ft | 308 kts | 132° |
| 2026-05-06 18:20 | 50.02383 | 1.14164 | 12667 ft | 307 kts | 132° |
| 2026-05-06 18:20 | 50.00961 | 1.16604 | 12418 ft | 306 kts | 132° |
| 2026-05-06 18:20 | 49.99529 | 1.19034 | 12168 ft | 305 kts | 133° |
| 2026-05-06 18:20 | 49.98100 | 1.21468 | 11917 ft | 304 kts | 132° |
| 2026-05-06 18:21 | 49.96684 | 1.23880 | 11667 ft | 303 kts | 133° |
| 2026-05-06 18:21 | 49.95146 | 1.26065 | 11420 ft | 301 kts | 140° |
| 2026-05-06 18:21 | 49.93485 | 1.28047 | 11172 ft | 301 kts | 144° |
| 2026-05-06 18:21 | 49.91786 | 1.29925 | 10922 ft | 299 kts | 145° |
| 2026-05-06 18:22 | 49.90062 | 1.31741 | 10671 ft | 298 kts | 146° |
| 2026-05-06 18:22 | 49.88324 | 1.33530 | 10419 ft | 297 kts | 147° |
| 2026-05-06 18:22 | 49.86615 | 1.35268 | 10171 ft | 296 kts | 147° |
| 2026-05-06 18:22 | 49.84879 | 1.36989 | 9920 ft | 295 kts | 147° |
| 2026-05-06 18:23 | 49.83142 | 1.38689 | 9669 ft | 294 kts | 148° |
| 2026-05-06 18:23 | 49.81400 | 1.40363 | 9418 ft | 293 kts | 148° |
| 2026-05-06 18:23 | 49.79657 | 1.42003 | 9167 ft | 292 kts | 148° |
| 2026-05-06 18:23 | 49.77935 | 1.43628 | 8920 ft | 291 kts | 148° |
| 2026-05-06 18:24 | 49.76222 | 1.45233 | 8670 ft | 290 kts | 148° |
| 2026-05-06 18:24 | 49.74495 | 1.46870 | 8418 ft | 289 kts | 148° |
| 2026-05-06 18:24 | 49.72783 | 1.48498 | 8167 ft | 288 kts | 148° |
| 2026-05-06 18:24 | 49.71082 | 1.50115 | 7917 ft | 286 kts | 148° |
| 2026-05-06 18:25 | 49.69405 | 1.51705 | 7669 ft | 285 kts | 148° |
| 2026-05-06 18:25 | 49.67715 | 1.53303 | 7488 ft | 282 kts | 148° |
| 2026-05-06 18:25 | 49.66039 | 1.54880 | 7362 ft | 281 kts | 148° |
| 2026-05-06 18:25 | 49.64402 | 1.56542 | 7182 ft | 281 kts | 139° |
| 2026-05-06 18:26 | 49.63230 | 1.58914 | 7018 ft | 278 kts | 116° |
| 2026-05-06 18:26 | 49.62510 | 1.61687 | 6861 ft | 278 kts | 106° |
| 2026-05-06 18:26 | 49.62013 | 1.64556 | 6689 ft | 276 kts | 102° |
| 2026-05-06 18:26 | 49.61613 | 1.67413 | 6516 ft | 275 kts | 100° |
| 2026-05-06 18:27 | 49.61241 | 1.70298 | 6341 ft | 273 kts | 99° |
| 2026-05-06 18:27 | 49.60881 | 1.73173 | 6166 ft | 272 kts | 99° |
| 2026-05-06 18:27 | 49.60525 | 1.76052 | 5989 ft | 271 kts | 99° |
| 2026-05-06 18:27 | 49.60177 | 1.78865 | 5815 ft | 270 kts | 99° |
| 2026-05-06 18:28 | 49.59826 | 1.81710 | 5640 ft | 269 kts | 99° |
| 2026-05-06 18:28 | 49.59473 | 1.84557 | 5460 ft | 268 kts | 99° |
| 2026-05-06 18:28 | 49.59158 | 1.87084 | 5304 ft | 267 kts | 99° |
| 2026-05-06 18:29 | 49.58992 | 1.88413 | 5223 ft | 267 kts | 99° |
| 2026-05-06 18:29 | 49.58777 | 1.90114 | 5116 ft | 267 kts | 99° |
| 2026-05-06 18:30 | 49.58541 | 1.91977 | 5000 ft | 266 kts | 99° |
| 2026-05-06 18:30 | 49.58024 | 1.95669 | 4832 ft | 264 kts | 103° |
| 2026-05-06 18:30 | 49.57661 | 1.97469 | 4785 ft | 265 kts | 106° |
| 2026-05-06 18:30 | 49.57042 | 2.00162 | 4710 ft | 265 kts | 108° |
| 2026-05-06 18:31 | 49.56395 | 2.02825 | 4635 ft | 265 kts | 109° |
| 2026-05-06 18:31 | 49.55745 | 2.05447 | 4561 ft | 265 kts | 109° |
| 2026-05-06 18:31 | 49.55082 | 2.08100 | 4485 ft | 265 kts | 109° |
| 2026-05-06 18:31 | 49.54412 | 2.10756 | 4407 ft | 265 kts | 109° |
| 2026-05-06 18:32 | 49.53744 | 2.13398 | 4333 ft | 264 kts | 109° |
| 2026-05-06 18:32 | 49.53081 | 2.16013 | 4260 ft | 264 kts | 109° |
| 2026-05-06 18:32 | 49.52405 | 2.18645 | 4187 ft | 265 kts | 111° |
| 2026-05-06 18:32 | 49.51584 | 2.21186 | 4116 ft | 265 kts | 116° |
| 2026-05-06 18:33 | 49.50668 | 2.23666 | 4043 ft | 265 kts | 118° |
| 2026-05-06 18:33 | 49.49738 | 2.26076 | 3968 ft | 265 kts | 119° |
| 2026-05-06 18:33 | 49.48785 | 2.28509 | 3893 ft | 265 kts | 119° |
| 2026-05-06 18:33 | 49.47830 | 2.30934 | 3817 ft | 265 kts | 119° |
| 2026-05-06 18:34 | 49.46872 | 2.33365 | 3741 ft | 264 kts | 119° |
| 2026-05-06 18:34 | 49.45928 | 2.35754 | 3673 ft | 264 kts | 119° |
| 2026-05-06 18:34 | 49.44971 | 2.38177 | 3591 ft | 264 kts | 119° |
| 2026-05-06 18:34 | 49.44019 | 2.40590 | 3517 ft | 264 kts | 119° |
| 2026-05-06 18:35 | 49.42989 | 2.42928 | 3427 ft | 265 kts | 130° |
| 2026-05-06 18:35 | 49.41493 | 2.44533 | 3355 ft | 268 kts | 155° |
| 2026-05-06 18:35 | 49.39652 | 2.45039 | 3284 ft | 271 kts | 181° |
| 2026-05-06 18:35 | 49.37844 | 2.44370 | 3231 ft | 270 kts | 202° |
| 2026-05-06 18:36 | 49.36196 | 2.43030 | 3164 ft | 269 kts | 217° |
| 2026-05-06 18:36 | 49.34985 | 2.40904 | 3065 ft | 257 kts | 242° |
| 2026-05-06 18:36 | 49.34553 | 2.38428 | 2965 ft | 226 kts | 270° |
| 2026-05-06 18:36 | 49.34823 | 2.36227 | 2855 ft | 202 kts | 291° |
| 2026-05-06 18:37 | 49.35390 | 2.34378 | 2738 ft | 181 kts | 301° |
| 2026-05-06 18:37 | 49.36039 | 2.32785 | 2603 ft | 170 kts | 306° |
| 2026-05-06 18:37 | 49.36694 | 2.31315 | 2439 ft | 167 kts | 307° |
| 2026-05-06 18:37 | 49.37349 | 2.29862 | 2257 ft | 164 kts | 307° |
| 2026-05-06 18:38 | 49.37988 | 2.28426 | 2077 ft | 161 kts | 306° |
| 2026-05-06 18:38 | 49.38604 | 2.27016 | 1943 ft | 156 kts | 306° |
| 2026-05-06 18:38 | 49.39198 | 2.25651 | 1844 ft | 152 kts | 306° |
| 2026-05-06 18:38 | 49.39787 | 2.24298 | 1745 ft | 152 kts | 306° |
| 2026-05-06 18:39 | 49.40358 | 2.22986 | 1641 ft | 143 kts | 306° |
| 2026-05-06 18:39 | 49.40898 | 2.21746 | 1520 ft | 138 kts | 305° |
| 2026-05-06 18:39 | 49.41429 | 2.20528 | 1378 ft | 136 kts | 305° |
| 2026-05-06 18:40 | 49.42473 | 2.18126 | 1077 ft | 135 kts | 304° |
| 2026-05-06 18:40 | 49.42998 | 2.16917 | 926 ft | 135 kts | 304° |
| 2026-05-06 18:40 | 49.43522 | 2.15711 | 777 ft | 135 kts | 304° |
| 2026-05-06 18:40 | 49.44039 | 2.14519 | 618 ft | 135 kts | 304° |
| 2026-05-06 18:41 | 49.44561 | 2.13316 | 442 ft | 134 kts | 303° |
| 2026-05-06 18:41 | 49.45055 | 2.12176 | 368 ft | 111 kts | 303° |
| 2026-05-06 18:41 | 49.45360 | 2.11472 | 368 ft | 51 kts | 303° |
| 2026-05-06 18:41 | 49.45513 | 2.11119 | 368 ft | 33 kts | 303° |
| 2026-05-06 18:42 | 49.45596 | 2.10927 | 368 ft | 11 kts | 303° |
| 2026-05-06 18:42 | 49.45644 | 2.10881 | 368 ft | 8 kts | 357° |
| 2026-05-06 18:42 | 49.45699 | 2.10914 | 368 ft | 9 kts | 28° |
| 2026-05-06 18:42 | 49.45760 | 2.10965 | 368 ft | 11 kts | 28° |
| 2026-05-06 18:43 | 49.45794 | 2.11047 | 368 ft | 9 kts | 122° |
| 2026-05-06 18:43 | 49.45757 | 2.11133 | 368 ft | 11 kts | 123° |
| 2026-05-06 18:43 | 49.45750 | 2.11191 | 368 ft | 3 kts | 46° |
| 2026-05-06 18:43 | 49.45764 | 2.11204 | 368 ft | 3 kts | 34° |
| 2026-05-06 18:44 | 49.45775 | 2.11216 | 368 ft | 0 kts | 34° |